Churchville, Virginia
Current Conditions -  °F | °C
As of 3:15 PM on Thursday 23 Oct 2014 (Local Time) from KSHD Reporting Station
Clear Clear  
Wind Chill: 63°   Ceiling: Unl
Heat Index: 63°   Visibility: 10mi
Dew Point: 40°   Wind: 17mph
Humidity: 42%   Direction: 320°NW
Pressure: 29.98"   Gusts: NA
Location:  38.23°N, 79.16°W
Report Text: KSHD 231915Z AUTO 32015KT 10SM CLR 17/04 A2998 RMK AO2 T01730043
Loading
Personal Weather Stations






























Interactive Weather Map
Tropical Storm Tracking
New forecast layout! Learn more

10-Day Weather Forecast

Advertisements
Track Severe Weather on mobile